sensor_id;sensor_type;location;lat;lon;timestamp;temperature;humidity
3232;DHT22;1628;48.884;9.210;2022-08-03T04:01:14;19.70;99.90
3232;DHT22;1628;48.884;9.210;2022-08-03T04:03:41;19.70;99.90
3232;DHT22;1628;48.884;9.210;2022-08-03T04:06:07;19.70;99.90
3232;DHT22;1628;48.884;9.210;2022-08-03T04:08:57;19.70;99.90
3232;DHT22;1628;48.884;9.210;2022-08-03T04:11:46;19.70;99.90
3232;DHT22;1628;48.884;9.210;2022-08-03T04:14:17;19.70;99.90
3232;DHT22;1628;48.884;9.210;2022-08-03T04:16:48;19.70;99.90
3232;DHT22;1628;48.884;9.210;2022-08-03T04:19:18;19.70;99.90
3232;DHT22;1628;48.884;9.210;2022-08-03T04:21:51;19.60;99.90
3232;DHT22;1628;48.884;9.210;2022-08-03T04:24:19;19.60;99.90
3232;DHT22;1628;48.884;9.210;2022-08-03T04:26:48;19.60;99.90
3232;DHT22;1628;48.884;9.210;2022-08-03T04:29:17;19.70;99.90
3232;DHT22;1628;48.884;9.210;2022-08-03T04:31:46;19.70;99.90
3232;DHT22;1628;48.884;9.210;2022-08-03T04:34:14;19.70;99.90
3232;DHT22;1628;48.884;9.210;2022-08-03T04:36:46;19.70;99.90
3232;DHT22;1628;48.884;9.210;2022-08-03T04:39:18;19.80;99.90
3232;DHT22;1628;48.884;9.210;2022-08-03T04:41:48;19.80;99.90
3232;DHT22;1628;48.884;9.210;2022-08-03T04:44:18;19.80;99.90
3232;DHT22;1628;48.884;9.210;2022-08-03T04:46:47;19.80;99.90
3232;DHT22;1628;48.884;9.210;2022-08-03T04:49:13;19.80;99.90
3232;DHT22;1628;48.884;9.210;2022-08-03T04:51:41;19.80;99.90
3232;DHT22;1628;48.884;9.210;2022-08-03T04:54:11;19.80;99.90
3232;DHT22;1628;48.884;9.210;2022-08-03T04:56:38;19.80;99.90
3232;DHT22;1628;48.884;9.210;2022-08-03T04:59:06;19.90;99.90
3232;DHT22;1628;48.884;9.210;2022-08-03T05:01:33;19.90;99.90
3232;DHT22;1628;48.884;9.210;2022-08-03T05:04:01;19.90;99.90
3232;DHT22;1628;48.884;9.210;2022-08-03T05:06:28;20.00;99.90
3232;DHT22;1628;48.884;9.210;2022-08-03T05:08:55;20.00;99.90
3232;DHT22;1628;48.884;9.210;2022-08-03T05:11:21;20.00;99.90
3232;DHT22;1628;48.884;9.210;2022-08-03T05:13:48;20.10;99.90
3232;DHT22;1628;48.884;9.210;2022-08-03T05:16:15;20.10;99.90
3232;DHT22;1628;48.884;9.210;2022-08-03T05:18:42;20.20;99.90
3232;DHT22;1628;48.884;9.210;2022-08-03T05:21:11;20.30;99.90
3232;DHT22;1628;48.884;9.210;2022-08-03T05:23:38;20.30;99.90
3232;DHT22;1628;48.884;9.210;2022-08-03T05:26:05;20.40;99.90
3232;DHT22;1628;48.884;9.210;2022-08-03T05:28:32;20.40;99.90
3232;DHT22;1628;48.884;9.210;2022-08-03T05:30:59;20.40;99.90
3232;DHT22;1628;48.884;9.210;2022-08-03T05:33:26;20.40;99.90
3232;DHT22;1628;48.884;9.210;2022-08-03T05:35:53;20.50;99.90
3232;DHT22;1628;48.884;9.210;2022-08-03T05:38:21;20.70;99.90
3232;DHT22;1628;48.884;9.210;2022-08-03T05:40:47;20.90;99.90
3232;DHT22;1628;48.884;9.210;2022-08-03T05:43:14;21.20;99.90
3232;DHT22;1628;48.884;9.210;2022-08-03T05:45:41;21.50;99.90
3232;DHT22;1628;48.884;9.210;2022-08-03T05:48:07;21.80;99.90
3232;DHT22;1628;48.884;9.210;2022-08-03T05:50:34;22.00;99.90
3232;DHT22;1628;48.884;9.210;2022-08-03T05:53:01;22.20;99.90
3232;DHT22;1628;48.884;9.210;2022-08-03T05:55:29;22.20;99.90
3232;DHT22;1628;48.884;9.210;2022-08-03T05:57:56;22.30;99.90
3232;DHT22;1628;48.884;9.210;2022-08-03T06:00:23;22.30;99.90
3232;DHT22;1628;48.884;9.210;2022-08-03T06:02:50;22.30;99.90
3232;DHT22;1628;48.884;9.210;2022-08-03T06:05:17;22.20;99.90
3232;DHT22;1628;48.884;9.210;2022-08-03T06:07:43;22.20;99.90
3232;DHT22;1628;48.884;9.210;2022-08-03T06:10:11;22.30;99.90
3232;DHT22;1628;48.884;9.210;2022-08-03T06:12:39;22.40;99.90
3232;DHT22;1628;48.884;9.210;2022-08-03T06:17:11;22.60;99.90
3232;DHT22;1628;48.884;9.210;2022-08-03T06:19:38;22.70;99.90
3232;DHT22;1628;48.884;9.210;2022-08-03T06:22:05;23.00;99.90
3232;DHT22;1628;48.884;9.210;2022-08-03T06:24:32;23.00;99.90
3232;DHT22;1628;48.884;9.210;2022-08-03T06:26:58;23.20;99.90
3232;DHT22;1628;48.884;9.210;2022-08-03T06:29:25;23.40;99.90
3232;DHT22;1628;48.884;9.210;2022-08-03T06:31:52;23.80;99.90
3232;DHT22;1628;48.884;9.210;2022-08-03T06:34:20;24.20;99.90
3232;DHT22;1628;48.884;9.210;2022-08-03T06:36:46;24.60;99.90
3232;DHT22;1628;48.884;9.210;2022-08-03T06:39:15;25.20;99.90
3232;DHT22;1628;48.884;9.210;2022-08-03T06:41:42;25.80;99.90
3232;DHT22;1628;48.884;9.210;2022-08-03T06:44:09;26.40;99.90
3232;DHT22;1628;48.884;9.210;2022-08-03T06:46:36;27.00;99.90
3232;DHT22;1628;48.884;9.210;2022-08-03T06:49:03;27.70;99.90
3232;DHT22;1628;48.884;9.210;2022-08-03T06:51:31;28.30;99.90
3232;DHT22;1628;48.884;9.210;2022-08-03T06:53:57;29.00;99.90
3232;DHT22;1628;48.884;9.210;2022-08-03T06:56:24;29.60;98.40
3232;DHT22;1628;48.884;9.210;2022-08-03T06:58:51;30.20;95.80
3232;DHT22;1628;48.884;9.210;2022-08-03T07:01:18;30.60;94.00
3232;DHT22;1628;48.884;9.210;2022-08-03T07:03:44;30.80;92.20
3232;DHT22;1628;48.884;9.210;2022-08-03T07:06:11;31.10;91.70
3232;DHT22;1628;48.884;9.210;2022-08-03T07:08:39;31.50;90.70
3232;DHT22;1628;48.884;9.210;2022-08-03T07:11:06;32.00;88.80
3232;DHT22;1628;48.884;9.210;2022-08-03T07:13:33;32.30;85.20
3232;DHT22;1628;48.884;9.210;2022-08-03T07:15:59;32.60;82.90
3232;DHT22;1628;48.884;9.210;2022-08-03T07:18:26;32.80;81.60
3232;DHT22;1628;48.884;9.210;2022-08-03T07:20:53;32.80;80.90
3232;DHT22;1628;48.884;9.210;2022-08-03T07:23:19;32.90;77.70
3232;DHT22;1628;48.884;9.210;2022-08-03T07:25:47;32.90;77.20
3232;DHT22;1628;48.884;9.210;2022-08-03T07:28:15;33.10;76.00
3232;DHT22;1628;48.884;9.210;2022-08-03T07:30:41;33.30;76.20
3232;DHT22;1628;48.884;9.210;2022-08-03T07:33:08;33.70;74.20
3232;DHT22;1628;48.884;9.210;2022-08-03T07:35:35;34.00;71.90
3232;DHT22;1628;48.884;9.210;2022-08-03T07:38:02;34.20;70.60
3232;DHT22;1628;48.884;9.210;2022-08-03T07:40:29;34.30;70.40
3232;DHT22;1628;48.884;9.210;2022-08-03T07:42:57;34.40;68.00
3232;DHT22;1628;48.884;9.210;2022-08-03T07:45:23;34.50;67.70
3232;DHT22;1628;48.884;9.210;2022-08-03T07:47:51;34.80;66.20
3232;DHT22;1628;48.884;9.210;2022-08-03T07:50:17;35.00;66.60
3232;DHT22;1628;48.884;9.210;2022-08-03T07:52:44;35.50;64.40
3232;DHT22;1628;48.884;9.210;2022-08-03T07:55:14;35.70;62.40
3232;DHT22;1628;48.884;9.210;2022-08-03T07:57:41;36.00;62.50
3232;DHT22;1628;48.884;9.210;2022-08-03T08:00:15;36.10;60.60
3232;DHT22;1628;48.884;9.210;2022-08-03T08:02:42;36.40;59.50
3232;DHT22;1628;48.884;9.210;2022-08-03T08:05:09;36.50;59.10
3232;DHT22;1628;48.884;9.210;2022-08-03T08:07:37;36.70;57.60
3232;DHT22;1628;48.884;9.210;2022-08-03T08:10:04;36.80;57.50
3232;DHT22;1628;48.884;9.210;2022-08-03T08:12:31;36.60;57.20
3232;DHT22;1628;48.884;9.210;2022-08-03T08:14:58;36.60;57.50
3232;DHT22;1628;48.884;9.210;2022-08-03T08:17:26;36.90;57.20
3232;DHT22;1628;48.884;9.210;2022-08-03T08:19:53;37.00;55.90
3232;DHT22;1628;48.884;9.210;2022-08-03T08:22:21;37.40;55.30
3232;DHT22;1628;48.884;9.210;2022-08-03T08:24:48;37.50;56.60
3232;DHT22;1628;48.884;9.210;2022-08-03T08:27:15;37.60;55.40
3232;DHT22;1628;48.884;9.210;2022-08-03T08:29:41;37.80;55.00
3232;DHT22;1628;48.884;9.210;2022-08-03T08:32:08;38.10;53.50
3232;DHT22;1628;48.884;9.210;2022-08-03T08:34:37;37.90;52.60
3232;DHT22;1628;48.884;9.210;2022-08-03T08:37:03;38.10;53.30
3232;DHT22;1628;48.884;9.210;2022-08-03T08:39:30;38.00;51.80
3232;DHT22;1628;48.884;9.210;2022-08-03T08:41:57;38.30;52.00
3232;DHT22;1628;48.884;9.210;2022-08-03T08:44:23;38.50;51.50
3232;DHT22;1628;48.884;9.210;2022-08-03T08:46:52;38.60;51.50
3232;DHT22;1628;48.884;9.210;2022-08-03T08:49:22;38.90;50.30
3232;DHT22;1628;48.884;9.210;2022-08-03T08:51:53;39.30;50.70
3232;DHT22;1628;48.884;9.210;2022-08-03T08:54:22;39.30;48.80
3232;DHT22;1628;48.884;9.210;2022-08-03T08:56:50;39.00;48.80
3232;DHT22;1628;48.884;9.210;2022-08-03T08:59:17;39.30;48.70
3232;DHT22;1628;48.884;9.210;2022-08-03T09:01:44;39.50;48.30
3232;DHT22;1628;48.884;9.210;2022-08-03T09:04:11;39.80;48.60
3232;DHT22;1628;48.884;9.210;2022-08-03T09:06:38;40.00;47.30
3232;DHT22;1628;48.884;9.210;2022-08-03T09:09:06;40.30;47.20
3232;DHT22;1628;48.884;9.210;2022-08-03T09:11:33;40.40;46.20
3232;DHT22;1628;48.884;9.210;2022-08-03T09:14:00;40.60;45.30
3232;DHT22;1628;48.884;9.210;2022-08-03T09:16:27;40.70;45.90
3232;DHT22;1628;48.884;9.210;2022-08-03T09:18:53;40.80;45.30
3232;DHT22;1628;48.884;9.210;2022-08-03T09:21:22;40.90;45.00
3232;DHT22;1628;48.884;9.210;2022-08-03T09:23:51;41.00;45.40
3232;DHT22;1628;48.884;9.210;2022-08-03T09:26:21;41.20;44.70
3232;DHT22;1628;48.884;9.210;2022-08-03T09:28:54;41.50;45.10
3232;DHT22;1628;48.884;9.210;2022-08-03T09:31:32;41.80;42.30
3232;DHT22;1628;48.884;9.210;2022-08-03T09:34:01;42.10;42.30
3232;DHT22;1628;48.884;9.210;2022-08-03T09:36:35;41.90;43.70
3232;DHT22;1628;48.884;9.210;2022-08-03T09:39:03;42.00;42.10
3232;DHT22;1628;48.884;9.210;2022-08-03T09:41:32;42.20;41.80
3232;DHT22;1628;48.884;9.210;2022-08-03T09:43:59;42.40;42.40
3232;DHT22;1628;48.884;9.210;2022-08-03T09:46:25;42.40;41.50
3232;DHT22;1628;48.884;9.210;2022-08-03T09:49:08;42.70;39.90
3232;DHT22;1628;48.884;9.210;2022-08-03T09:51:35;42.60;39.80
3232;DHT22;1628;48.884;9.210;2022-08-03T09:54:02;42.50;39.90
3232;DHT22;1628;48.884;9.210;2022-08-03T09:56:44;42.70;40.50
3232;DHT22;1628;48.884;9.210;2022-08-03T09:59:13;42.80;40.20
3232;DHT22;1628;48.884;9.210;2022-08-03T10:01:48;42.90;39.10
3232;DHT22;1628;48.884;9.210;2022-08-03T10:04:15;43.10;39.20
3232;DHT22;1628;48.884;9.210;2022-08-03T10:06:43;42.80;38.00
3232;DHT22;1628;48.884;9.210;2022-08-03T10:09:11;43.20;37.80
3232;DHT22;1628;48.884;9.210;2022-08-03T10:11:40;43.20;38.20
3232;DHT22;1628;48.884;9.210;2022-08-03T10:14:09;42.90;38.50
3232;DHT22;1628;48.884;9.210;2022-08-03T10:16:43;43.20;38.00
3232;DHT22;1628;48.884;9.210;2022-08-03T10:19:10;43.10;37.90
3232;DHT22;1628;48.884;9.210;2022-08-03T10:21:42;43.40;37.80
3232;DHT22;1628;48.884;9.210;2022-08-03T10:24:16;43.50;38.00
3232;DHT22;1628;48.884;9.210;2022-08-03T10:26:46;43.70;37.90
3232;DHT22;1628;48.884;9.210;2022-08-03T10:29:21;43.80;37.90
3232;DHT22;1628;48.884;9.210;2022-08-03T10:31:53;43.80;37.60
3232;DHT22;1628;48.884;9.210;2022-08-03T10:34:25;43.80;38.30
3232;DHT22;1628;48.884;9.210;2022-08-03T10:36:55;44.10;37.90
3232;DHT22;1628;48.884;9.210;2022-08-03T10:39:27;44.00;37.60
3232;DHT22;1628;48.884;9.210;2022-08-03T10:41:56;44.10;37.80
3232;DHT22;1628;48.884;9.210;2022-08-03T10:44:27;44.30;37.10
3232;DHT22;1628;48.884;9.210;2022-08-03T10:46:56;44.00;36.80
3232;DHT22;1628;48.884;9.210;2022-08-03T10:49:23;43.90;37.20
3232;DHT22;1628;48.884;9.210;2022-08-03T10:51:50;43.70;37.30
3232;DHT22;1628;48.884;9.210;2022-08-03T10:54:41;43.50;37.80
3232;DHT22;1628;48.884;9.210;2022-08-03T10:57:46;43.50;37.70
3232;DHT22;1628;48.884;9.210;2022-08-03T11:00:16;43.30;38.10
3232;DHT22;1628;48.884;9.210;2022-08-03T11:03:08;43.10;38.50
3232;DHT22;1628;48.884;9.210;2022-08-03T11:05:40;43.10;38.40
3232;DHT22;1628;48.884;9.210;2022-08-03T11:08:30;43.40;39.00
3232;DHT22;1628;48.884;9.210;2022-08-03T11:10:59;43.50;38.90
3232;DHT22;1628;48.884;9.210;2022-08-03T11:13:28;43.70;38.60
3232;DHT22;1628;48.884;9.210;2022-08-03T11:16:01;43.70;37.70
3232;DHT22;1628;48.884;9.210;2022-08-03T11:18:29;43.30;37.10
3232;DHT22;1628;48.884;9.210;2022-08-03T11:20:56;43.40;37.70
3232;DHT22;1628;48.884;9.210;2022-08-03T11:23:41;43.40;36.90
3232;DHT22;1628;48.884;9.210;2022-08-03T11:26:15;43.40;37.50
3232;DHT22;1628;48.884;9.210;2022-08-03T11:28:43;43.10;36.70
3232;DHT22;1628;48.884;9.210;2022-08-03T11:31:46;42.90;37.60
3232;DHT22;1628;48.884;9.210;2022-08-03T11:34:15;42.50;36.80
3232;DHT22;1628;48.884;9.210;2022-08-03T11:37:19;42.00;37.90
3232;DHT22;1628;48.884;9.210;2022-08-03T11:39:52;41.60;37.90
3232;DHT22;1628;48.884;9.210;2022-08-03T11:42:38;41.30;37.80
3232;DHT22;1628;48.884;9.210;2022-08-03T11:45:07;40.90;40.20
3232;DHT22;1628;48.884;9.210;2022-08-03T11:47:38;40.60;38.40
3232;DHT22;1628;48.884;9.210;2022-08-03T11:50:06;40.10;39.70
3232;DHT22;1628;48.884;9.210;2022-08-03T11:52:38;39.80;40.10
3232;DHT22;1628;48.884;9.210;2022-08-03T11:55:18;39.20;40.30
3232;DHT22;1628;48.884;9.210;2022-08-03T11:57:46;38.70;39.60
3232;DHT22;1628;48.884;9.210;2022-08-03T12:00:25;38.60;39.80
3232;DHT22;1628;48.884;9.210;2022-08-03T12:03:02;38.40;41.10
3232;DHT22;1628;48.884;9.210;2022-08-03T12:05:43;38.30;40.80
3232;DHT22;1628;48.884;9.210;2022-08-03T12:08:11;38.00;40.30
3232;DHT22;1628;48.884;9.210;2022-08-03T12:10:39;37.90;41.00
3232;DHT22;1628;48.884;9.210;2022-08-03T12:13:06;37.90;40.20
3232;DHT22;1628;48.884;9.210;2022-08-03T12:15:34;38.00;39.80
3232;DHT22;1628;48.884;9.210;2022-08-03T12:18:11;38.20;40.60
3232;DHT22;1628;48.884;9.210;2022-08-03T12:20:39;38.30;41.10
3232;DHT22;1628;48.884;9.210;2022-08-03T12:23:07;38.70;41.80
3232;DHT22;1628;48.884;9.210;2022-08-03T12:25:35;38.70;40.30
3232;DHT22;1628;48.884;9.210;2022-08-03T12:28:08;38.70;40.30
3232;DHT22;1628;48.884;9.210;2022-08-03T12:30:35;38.70;39.70
3232;DHT22;1628;48.884;9.210;2022-08-03T12:33:13;38.60;39.70
3232;DHT22;1628;48.884;9.210;2022-08-03T12:35:40;38.50;40.20
3232;DHT22;1628;48.884;9.210;2022-08-03T12:38:07;38.40;39.70
3232;DHT22;1628;48.884;9.210;2022-08-03T12:40:33;38.50;39.70
3232;DHT22;1628;48.884;9.210;2022-08-03T12:43:00;38.60;39.30
3232;DHT22;1628;48.884;9.210;2022-08-03T12:45:28;38.70;38.20
3232;DHT22;1628;48.884;9.210;2022-08-03T12:47:57;39.00;40.00
3232;DHT22;1628;48.884;9.210;2022-08-03T12:50:27;39.20;38.80
3232;DHT22;1628;48.884;9.210;2022-08-03T12:52:55;39.10;38.20
3232;DHT22;1628;48.884;9.210;2022-08-03T12:55:24;38.90;38.50
3232;DHT22;1628;48.884;9.210;2022-08-03T12:57:58;38.90;38.70
3232;DHT22;1628;48.884;9.210;2022-08-03T13:00:24;38.90;39.30
3232;DHT22;1628;48.884;9.210;2022-08-03T13:02:58;38.90;41.20
3232;DHT22;1628;48.884;9.210;2022-08-03T13:05:27;38.90;41.40
3232;DHT22;1628;48.884;9.210;2022-08-03T13:07:54;39.10;40.30
3232;DHT22;1628;48.884;9.210;2022-08-03T13:10:28;39.30;39.90
3232;DHT22;1628;48.884;9.210;2022-08-03T13:12:56;39.20;40.10
3232;DHT22;1628;48.884;9.210;2022-08-03T13:15:25;39.00;39.30
3232;DHT22;1628;48.884;9.210;2022-08-03T13:17:53;38.80;38.70
3232;DHT22;1628;48.884;9.210;2022-08-03T13:20:19;38.60;39.80
3232;DHT22;1628;48.884;9.210;2022-08-03T13:22:48;38.70;39.10
3232;DHT22;1628;48.884;9.210;2022-08-03T13:25:14;38.70;39.70
3232;DHT22;1628;48.884;9.210;2022-08-03T13:27:41;38.70;38.70
3232;DHT22;1628;48.884;9.210;2022-08-03T13:30:08;38.80;39.90
3232;DHT22;1628;48.884;9.210;2022-08-03T13:32:35;38.70;38.70
3232;DHT22;1628;48.884;9.210;2022-08-03T13:35:03;38.60;39.00
3232;DHT22;1628;48.884;9.210;2022-08-03T13:37:30;38.70;38.80
3232;DHT22;1628;48.884;9.210;2022-08-03T13:39:59;38.30;38.80
3232;DHT22;1628;48.884;9.210;2022-08-03T13:42:27;38.20;39.30
3232;DHT22;1628;48.884;9.210;2022-08-03T13:44:54;38.10;39.00
3232;DHT22;1628;48.884;9.210;2022-08-03T13:47:20;37.80;39.80
3232;DHT22;1628;48.884;9.210;2022-08-03T13:49:47;37.50;39.80
3232;DHT22;1628;48.884;9.210;2022-08-03T13:52:15;37.50;40.80
3232;DHT22;1628;48.884;9.210;2022-08-03T13:54:42;37.60;40.70
3232;DHT22;1628;48.884;9.210;2022-08-03T13:57:10;37.60;40.70
3232;DHT22;1628;48.884;9.210;2022-08-03T13:59:37;37.60;39.80
3232;DHT22;1628;48.884;9.210;2022-08-03T14:02:03;37.60;40.50
3232;DHT22;1628;48.884;9.210;2022-08-03T14:04:30;37.50;40.20
3232;DHT22;1628;48.884;9.210;2022-08-03T14:06:57;37.30;40.20
3232;DHT22;1628;48.884;9.210;2022-08-03T14:09:24;37.40;41.40
3232;DHT22;1628;48.884;9.210;2022-08-03T14:11:50;37.50;40.70
3232;DHT22;1628;48.884;9.210;2022-08-03T14:14:18;37.60;39.80
3232;DHT22;1628;48.884;9.210;2022-08-03T14:16:45;37.60;39.40
3232;DHT22;1628;48.884;9.210;2022-08-03T14:19:12;37.60;39.60
3232;DHT22;1628;48.884;9.210;2022-08-03T14:21:40;37.70;40.60
3232;DHT22;1628;48.884;9.210;2022-08-03T14:24:07;37.80;41.20
3232;DHT22;1628;48.884;9.210;2022-08-03T14:26:33;37.90;39.20
3232;DHT22;1628;48.884;9.210;2022-08-03T14:29:00;37.90;39.30
3232;DHT22;1628;48.884;9.210;2022-08-03T14:31:30;38.00;39.40
3232;DHT22;1628;48.884;9.210;2022-08-03T14:33:57;38.10;39.40
3232;DHT22;1628;48.884;9.210;2022-08-03T14:36:24;38.10;38.70
3232;DHT22;1628;48.884;9.210;2022-08-03T14:38:50;38.20;39.10
3232;DHT22;1628;48.884;9.210;2022-08-03T14:41:17;38.20;38.60
3232;DHT22;1628;48.884;9.210;2022-08-03T14:43:44;38.00;38.40
3232;DHT22;1628;48.884;9.210;2022-08-03T14:46:11;38.10;39.00
3232;DHT22;1628;48.884;9.210;2022-08-03T14:48:39;38.00;38.90
3232;DHT22;1628;48.884;9.210;2022-08-03T14:51:05;37.90;39.40
3232;DHT22;1628;48.884;9.210;2022-08-03T14:53:33;37.80;39.10
3232;DHT22;1628;48.884;9.210;2022-08-03T14:56:00;37.90;38.80
3232;DHT22;1628;48.884;9.210;2022-08-03T14:58:26;37.90;39.30
3232;DHT22;1628;48.884;9.210;2022-08-03T15:00:54;38.00;39.10
3232;DHT22;1628;48.884;9.210;2022-08-03T15:03:22;38.00;38.80
3232;DHT22;1628;48.884;9.210;2022-08-03T15:05:51;38.10;38.90
3232;DHT22;1628;48.884;9.210;2022-08-03T15:08:18;38.20;38.70
3232;DHT22;1628;48.884;9.210;2022-08-03T15:10:45;38.30;38.50
3232;DHT22;1628;48.884;9.210;2022-08-03T15:13:12;38.20;39.00
3232;DHT22;1628;48.884;9.210;2022-08-03T15:15:40;38.20;38.50
3232;DHT22;1628;48.884;9.210;2022-08-03T15:18:07;38.30;38.90
3232;DHT22;1628;48.884;9.210;2022-08-03T15:20:34;38.30;38.00
3232;DHT22;1628;48.884;9.210;2022-08-03T15:23:02;38.30;39.10
3232;DHT22;1628;48.884;9.210;2022-08-03T15:25:28;38.20;38.90
3232;DHT22;1628;48.884;9.210;2022-08-03T15:27:55;38.10;38.50
3232;DHT22;1628;48.884;9.210;2022-08-03T15:30:22;38.10;38.40
3232;DHT22;1628;48.884;9.210;2022-08-03T15:32:49;38.10;39.20
3232;DHT22;1628;48.884;9.210;2022-08-03T15:35:15;38.00;38.70
3232;DHT22;1628;48.884;9.210;2022-08-03T15:37:42;38.00;38.30
3232;DHT22;1628;48.884;9.210;2022-08-03T15:40:11;37.90;39.00
3232;DHT22;1628;48.884;9.210;2022-08-03T15:42:38;37.90;40.00
3232;DHT22;1628;48.884;9.210;2022-08-03T15:45:06;37.90;39.70
3232;DHT22;1628;48.884;9.210;2022-08-03T15:47:32;37.90;39.00
3232;DHT22;1628;48.884;9.210;2022-08-03T15:49:59;37.60;38.80
3232;DHT22;1628;48.884;9.210;2022-08-03T15:52:26;37.60;38.80
3232;DHT22;1628;48.884;9.210;2022-08-03T15:54:53;37.60;40.20
3232;DHT22;1628;48.884;9.210;2022-08-03T15:57:21;37.60;40.00
3232;DHT22;1628;48.884;9.210;2022-08-03T15:59:48;37.60;39.30
3232;DHT22;1628;48.884;9.210;2022-08-03T16:02:15;37.50;39.00
3232;DHT22;1628;48.884;9.210;2022-08-03T16:04:41;37.40;39.10
3232;DHT22;1628;48.884;9.210;2022-08-03T16:07:08;37.30;39.50
3232;DHT22;1628;48.884;9.210;2022-08-03T16:09:35;37.30;39.50
3232;DHT22;1628;48.884;9.210;2022-08-03T16:12:02;37.00;39.80
3232;DHT22;1628;48.884;9.210;2022-08-03T16:14:30;36.90;40.00
3232;DHT22;1628;48.884;9.210;2022-08-03T16:16:57;36.80;40.10
3232;DHT22;1628;48.884;9.210;2022-08-03T16:19:23;36.60;39.90
3232;DHT22;1628;48.884;9.210;2022-08-03T16:21:50;36.50;39.90
3232;DHT22;1628;48.884;9.210;2022-08-03T16:24:17;36.40;40.30
3232;DHT22;1628;48.884;9.210;2022-08-03T16:26:43;36.40;40.50
3232;DHT22;1628;48.884;9.210;2022-08-03T16:29:10;36.40;40.10
3232;DHT22;1628;48.884;9.210;2022-08-03T16:31:39;36.30;39.70
3232;DHT22;1628;48.884;9.210;2022-08-03T16:34:06;36.20;40.10
3232;DHT22;1628;48.884;9.210;2022-08-03T16:36:33;35.90;40.40
3232;DHT22;1628;48.884;9.210;2022-08-03T16:39:00;35.70;40.60
3232;DHT22;1628;48.884;9.210;2022-08-03T16:41:26;35.60;40.80
3232;DHT22;1628;48.884;9.210;2022-08-03T16:43:55;35.60;41.00
3232;DHT22;1628;48.884;9.210;2022-08-03T16:46:22;35.60;41.00
3232;DHT22;1628;48.884;9.210;2022-08-03T16:48:50;35.50;40.90
3232;DHT22;1628;48.884;9.210;2022-08-03T16:51:17;35.50;41.10
3232;DHT22;1628;48.884;9.210;2022-08-03T16:53:45;35.50;41.30
3232;DHT22;1628;48.884;9.210;2022-08-03T16:56:11;35.50;41.10
3232;DHT22;1628;48.884;9.210;2022-08-03T16:58:38;35.30;40.80
3232;DHT22;1628;48.884;9.210;2022-08-03T17:01:05;35.20;40.90
3232;DHT22;1628;48.884;9.210;2022-08-03T17:03:32;35.10;40.80
3232;DHT22;1628;48.884;9.210;2022-08-03T17:06:02;35.00;40.90
3232;DHT22;1628;48.884;9.210;2022-08-03T17:08:29;34.90;41.10
3232;DHT22;1628;48.884;9.210;2022-08-03T17:10:56;34.90;41.20
3232;DHT22;1628;48.884;9.210;2022-08-03T17:13:24;34.80;41.10
3232;DHT22;1628;48.884;9.210;2022-08-03T17:15:53;34.70;41.50
3232;DHT22;1628;48.884;9.210;2022-08-03T17:18:20;34.70;41.20
3232;DHT22;1628;48.884;9.210;2022-08-03T17:20:49;34.70;41.40
3232;DHT22;1628;48.884;9.210;2022-08-03T17:23:35;34.70;41.50
3232;DHT22;1628;48.884;9.210;2022-08-03T17:26:03;34.50;41.80
3232;DHT22;1628;48.884;9.210;2022-08-03T17:28:38;34.40;42.20
3232;DHT22;1628;48.884;9.210;2022-08-03T17:31:06;34.50;42.20
3232;DHT22;1628;48.884;9.210;2022-08-03T17:33:43;34.40;41.50
3232;DHT22;1628;48.884;9.210;2022-08-03T17:36:10;34.40;41.90
3232;DHT22;1628;48.884;9.210;2022-08-03T17:38:39;34.30;41.70
3232;DHT22;1628;48.884;9.210;2022-08-03T17:41:06;34.30;41.20
3232;DHT22;1628;48.884;9.210;2022-08-03T17:43:33;34.20;40.60
3232;DHT22;1628;48.884;9.210;2022-08-03T17:46:02;34.10;40.70
3232;DHT22;1628;48.884;9.210;2022-08-03T17:48:30;34.00;40.80
3232;DHT22;1628;48.884;9.210;2022-08-03T17:50:59;34.00;41.00
3232;DHT22;1628;48.884;9.210;2022-08-03T17:53:31;33.90;41.20
3232;DHT22;1628;48.884;9.210;2022-08-03T17:56:08;33.90;41.30
3232;DHT22;1628;48.884;9.210;2022-08-03T17:58:47;33.80;41.40
3232;DHT22;1628;48.884;9.210;2022-08-03T18:01:23;33.70;41.80
3232;DHT22;1628;48.884;9.210;2022-08-03T18:04:09;33.70;41.70
3232;DHT22;1628;48.884;9.210;2022-08-03T18:06:38;33.60;41.90
3232;DHT22;1628;48.884;9.210;2022-08-03T18:09:07;33.50;42.20
3232;DHT22;1628;48.884;9.210;2022-08-03T18:11:39;33.50;42.70
3232;DHT22;1628;48.884;9.210;2022-08-03T18:14:14;33.30;43.10
3232;DHT22;1628;48.884;9.210;2022-08-03T18:16:43;33.30;43.50
3232;DHT22;1628;48.884;9.210;2022-08-03T18:19:10;33.20;43.70
3232;DHT22;1628;48.884;9.210;2022-08-03T18:21:38;33.10;43.90
3232;DHT22;1628;48.884;9.210;2022-08-03T18:24:06;33.10;44.00
3232;DHT22;1628;48.884;9.210;2022-08-03T18:26:37;33.10;44.30
3232;DHT22;1628;48.884;9.210;2022-08-03T18:29:05;33.00;44.50
3232;DHT22;1628;48.884;9.210;2022-08-03T18:31:34;33.00;44.50
3232;DHT22;1628;48.884;9.210;2022-08-03T18:34:02;32.90;45.30
3232;DHT22;1628;48.884;9.210;2022-08-03T18:36:30;32.90;46.00
3232;DHT22;1628;48.884;9.210;2022-08-03T18:38:58;32.80;45.70
3232;DHT22;1628;48.884;9.210;2022-08-03T18:41:27;32.70;46.40
3232;DHT22;1628;48.884;9.210;2022-08-03T18:43:56;32.60;47.30
3232;DHT22;1628;48.884;9.210;2022-08-03T18:46:33;32.50;47.90
3232;DHT22;1628;48.884;9.210;2022-08-03T18:49:10;32.50;48.40
3232;DHT22;1628;48.884;9.210;2022-08-03T18:51:38;32.40;47.80
3232;DHT22;1628;48.884;9.210;2022-08-03T18:54:11;32.30;49.30
3232;DHT22;1628;48.884;9.210;2022-08-03T18:56:43;32.20;49.00
3232;DHT22;1628;48.884;9.210;2022-08-03T18:59:20;32.00;48.30
3232;DHT22;1628;48.884;9.210;2022-08-03T19:01:52;31.90;48.70
3232;DHT22;1628;48.884;9.210;2022-08-03T19:04:24;31.80;48.30
3232;DHT22;1628;48.884;9.210;2022-08-03T19:06:57;31.70;48.80
3232;DHT22;1628;48.884;9.210;2022-08-03T19:09:28;31.60;49.30
3232;DHT22;1628;48.884;9.210;2022-08-03T19:11:57;31.50;49.40
3232;DHT22;1628;48.884;9.210;2022-08-03T19:14:32;31.50;50.80
3232;DHT22;1628;48.884;9.210;2022-08-03T19:17:04;31.40;50.90
3232;DHT22;1628;48.884;9.210;2022-08-03T19:19:33;31.30;50.60
3232;DHT22;1628;48.884;9.210;2022-08-03T19:22:01;31.20;50.70
3232;DHT22;1628;48.884;9.210;2022-08-03T19:24:29;31.10;51.50
3232;DHT22;1628;48.884;9.210;2022-08-03T19:26:57;31.00;51.40
3232;DHT22;1628;48.884;9.210;2022-08-03T19:29:27;31.00;51.70
3232;DHT22;1628;48.884;9.210;2022-08-03T19:31:57;30.90;51.50
3232;DHT22;1628;48.884;9.210;2022-08-03T19:34:27;30.80;51.50
3232;DHT22;1628;48.884;9.210;2022-08-03T19:36:55;30.80;52.10
3232;DHT22;1628;48.884;9.210;2022-08-03T19:39:22;30.70;51.70
3232;DHT22;1628;48.884;9.210;2022-08-03T19:41:50;30.70;51.60
3232;DHT22;1628;48.884;9.210;2022-08-03T19:44:21;30.60;52.10
3232;DHT22;1628;48.884;9.210;2022-08-03T19:46:53;30.60;52.00
3232;DHT22;1628;48.884;9.210;2022-08-03T19:49:25;30.50;52.00
3232;DHT22;1628;48.884;9.210;2022-08-03T19:51:53;30.50;52.00
3232;DHT22;1628;48.884;9.210;2022-08-03T19:54:22;30.40;52.30
3232;DHT22;1628;48.884;9.210;2022-08-03T19:56:52;30.40;52.40
3232;DHT22;1628;48.884;9.210;2022-08-03T19:59:21;30.40;53.00
3232;DHT22;1628;48.884;9.210;2022-08-03T20:01:49;30.30;52.90
3232;DHT22;1628;48.884;9.210;2022-08-03T20:04:16;30.30;53.20
3232;DHT22;1628;48.884;9.210;2022-08-03T20:06:43;30.20;53.40
3232;DHT22;1628;48.884;9.210;2022-08-03T20:09:11;30.20;53.70
3232;DHT22;1628;48.884;9.210;2022-08-03T20:11:38;30.20;54.20
3232;DHT22;1628;48.884;9.210;2022-08-03T20:14:10;30.10;55.10
3232;DHT22;1628;48.884;9.210;2022-08-03T20:16:37;30.10;55.00